createdAt,value
2023-01-28T00:10:36.700Z,32.22
2023-01-28T00:17:06.183Z,29.63
2023-01-28T00:19:50.955Z,29.25
2023-01-28T00:29:10.294Z,27.10
2023-01-28T00:32:02.015Z,26.77
2023-01-28T00:35:02.101Z,27.50
2023-01-28T00:38:06.510Z,25.83
2023-01-28T00:43:34.292Z,29.50
2023-01-28T00:49:15.079Z,32.83
2023-01-28T01:04:53.300Z,26.52
2023-01-28T01:18:52.761Z,29.98
2023-01-28T01:21:41.200Z,27.43
2023-01-28T01:24:18.408Z,22.17
2023-01-28T01:27:06.857Z,26.42
2023-01-28T01:42:20.158Z,27.33
2023-01-28T01:45:08.663Z,29.00
2023-01-28T01:47:59.913Z,28.52
2023-01-28T01:50:54.618Z,27.88
2023-01-28T01:56:47.192Z,29.10
2023-01-28T01:59:49.484Z,27.15
2023-01-28T02:05:33.385Z,27.25
2023-01-28T02:08:39.943Z,28.08
2023-01-28T02:11:22.212Z,25.00
2023-01-28T02:13:58.066Z,25.75
2023-01-28T02:17:00.714Z,26.73
2023-01-28T02:22:49.488Z,31.48
2023-01-28T02:28:45.119Z,28.27
2023-01-28T03:03:09.046Z,29.10
2023-01-28T03:22:01.362Z,27.77
2023-01-28T03:34:11.600Z,27.83
2023-01-28T04:15:47.118Z,29.50
2023-01-28T04:18:54.526Z,30.80
2023-01-28T04:24:24.957Z,30.00
2023-01-28T04:27:14.585Z,30.50
2023-01-28T04:29:55.436Z,30.83
2023-01-28T04:33:17.757Z,29.73
2023-01-28T05:24:04.896Z,27.00
2023-01-28T05:30:48.502Z,26.27
2023-01-28T05:40:10.787Z,23.25
2023-01-28T05:42:48.652Z,26.92
2023-01-28T05:58:43.431Z,26.15
2023-01-28T06:34:53.685Z,22.05
2023-01-28T07:31:27.648Z,28.13
2023-01-28T07:34:42.577Z,25.02
2023-01-28T07:37:27.297Z,22.75
2023-01-28T07:40:24.608Z,23.65
2023-01-28T09:06:10.378Z,23.33
2023-01-28T09:15:27.679Z,18.38
2023-01-28T09:31:18.583Z,16.58
2023-01-28T11:56:48.244Z,10.15
2023-01-28T12:09:22.330Z,11.67
2023-01-28T12:18:22.792Z,13.77
2023-01-28T14:47:07.178Z,5.28
2023-01-28T14:56:52.886Z,5.63
2023-01-28T15:06:18.033Z,5.75
2023-01-28T15:15:20.630Z,5.70
2023-01-28T15:24:32.679Z,6.10
2023-01-28T15:27:11.288Z,6.22
2023-01-28T15:32:39.800Z,6.25
2023-01-28T15:35:14.623Z,6.68
2023-01-28T15:38:11.911Z,7.47
2023-01-28T15:43:57.769Z,8.35
2023-01-28T15:46:48.016Z,7.05
2023-01-28T15:49:55.245Z,7.97
2023-01-28T15:53:09.953Z,7.03
2023-01-28T15:55:46.299Z,7.43
2023-01-28T16:01:17.439Z,8.20
2023-01-28T16:04:14.063Z,7.30
2023-01-28T16:06:53.328Z,7.85
2023-01-28T16:09:40.026Z,7.82
2023-01-28T16:12:17.693Z,7.82
2023-01-28T16:14:58.817Z,8.07
2023-01-28T16:17:36.870Z,7.50
2023-01-28T16:20:31.761Z,8.53
2023-01-28T16:23:14.494Z,7.90
2023-01-28T16:26:31.197Z,8.15
2023-01-28T16:45:18.406Z,8.10
2023-01-28T16:48:00.283Z,7.85
2023-01-28T16:50:35.646Z,8.60
2023-01-28T16:53:12.913Z,8.03
2023-01-28T16:55:49.089Z,8.02
2023-01-28T17:01:06.827Z,10.10
2023-01-28T17:03:53.151Z,8.57
2023-01-28T17:06:31.061Z,9.40
2023-01-28T17:09:14.403Z,9.90
2023-01-28T17:11:49.308Z,9.77
2023-01-28T17:14:25.865Z,9.18
2023-01-28T17:17:03.182Z,11.57
2023-01-28T17:19:37.285Z,8.85
2023-01-28T17:22:12.408Z,10.15
2023-01-28T17:24:47.487Z,11.02
2023-01-28T17:27:24.478Z,12.57
2023-01-28T17:29:59.599Z,10.88
2023-01-28T17:32:37.134Z,9.48
2023-01-28T17:35:15.348Z,9.60
2023-01-28T17:37:50.626Z,8.15
2023-01-28T17:40:26.221Z,8.20
2023-01-28T17:43:01.588Z,7.65
2023-01-28T17:45:36.400Z,8.40
2023-01-28T17:48:14.275Z,7.70
2023-01-28T17:50:51.652Z,7.73
2023-01-28T17:53:26.471Z,8.13
2023-01-28T17:56:01.141Z,9.15
2023-01-28T17:58:35.621Z,8.75
2023-01-28T18:01:13.090Z,8.50
2023-01-28T18:03:55.232Z,8.23
2023-01-28T18:06:33.802Z,7.95
2023-01-28T18:09:09.408Z,9.00
2023-01-28T18:11:44.337Z,9.13
2023-01-28T18:14:19.238Z,8.80
2023-01-28T18:16:54.249Z,8.80
2023-01-28T18:19:32.782Z,9.23
2023-01-28T18:22:07.248Z,11.05
2023-01-28T18:24:42.398Z,11.30
2023-01-28T18:27:17.420Z,9.55
2023-01-28T18:29:53.077Z,10.07
2023-01-28T18:32:28.586Z,9.88
2023-01-28T18:35:07.067Z,9.75
2023-01-28T18:37:41.820Z,9.30
2023-01-28T18:40:16.704Z,7.63
2023-01-28T18:42:51.102Z,8.05
2023-01-28T18:45:25.483Z,7.28
2023-01-28T18:48:00.437Z,6.10
2023-01-28T18:50:37.851Z,3.65
2023-01-28T18:53:12.252Z,3.50
2023-01-28T18:55:47.108Z,3.88
2023-01-28T18:58:21.591Z,4.43
2023-01-28T19:00:56.344Z,4.73
2023-01-28T19:03:31.173Z,4.88
2023-01-28T19:06:10.007Z,5.45
2023-01-28T19:08:44.499Z,4.55
2023-01-28T19:11:19.122Z,4.70
2023-01-28T19:13:53.491Z,4.35
2023-01-28T19:16:29.036Z,5.55
2023-01-28T19:19:03.779Z,5.53
2023-01-28T19:21:42.193Z,6.85
2023-01-28T19:24:17.462Z,6.25
2023-01-28T19:26:52.657Z,6.00
2023-01-28T19:29:28.948Z,5.80
2023-01-28T19:32:04.987Z,5.10
2023-01-28T19:37:17.259Z,4.50
2023-01-28T19:39:57.476Z,4.70
2023-01-28T19:42:42.107Z,5.50
2023-01-28T19:45:16.781Z,6.15
2023-01-28T19:47:54.265Z,5.72
2023-01-28T19:50:36.036Z,6.47
2023-01-28T19:53:22.006Z,6.93
2023-01-28T19:55:57.381Z,5.50
2023-01-28T19:58:36.390Z,6.47
2023-01-28T20:01:13.280Z,6.55
2023-01-28T20:03:55.576Z,6.75
2023-01-28T20:06:34.786Z,6.70
2023-01-28T20:09:16.902Z,10.50
2023-01-28T20:12:03.169Z,17.95
2023-01-28T20:14:44.978Z,21.75
2023-01-28T20:17:25.228Z,21.00
2023-01-28T20:20:05.180Z,9.15
2023-01-28T20:22:42.626Z,7.07
2023-01-28T20:25:23.991Z,6.03
2023-01-28T20:28:02.677Z,6.65
2023-01-28T20:30:41.569Z,5.80
2023-01-28T20:33:22.273Z,6.20
2023-01-28T20:36:05.889Z,5.60
2023-01-28T20:38:48.452Z,6.07
2023-01-28T20:41:29.269Z,5.10
2023-01-28T20:44:08.180Z,5.65
2023-01-28T20:46:47.840Z,5.93
2023-01-28T20:49:25.140Z,6.60
2023-01-28T20:52:06.887Z,6.78
2023-01-28T20:54:44.114Z,6.70
2023-01-28T20:57:26.848Z,6.47
2023-01-28T21:00:03.030Z,7.25
2023-01-28T21:05:17.788Z,6.55
2023-01-28T21:07:54.354Z,7.20
2023-01-28T21:10:31.099Z,10.15
2023-01-28T21:13:11.485Z,10.93
2023-01-28T21:15:48.289Z,10.07
2023-01-28T21:18:25.992Z,9.90
2023-01-28T21:21:07.967Z,9.63
2023-01-28T21:23:46.391Z,9.45
2023-01-28T21:26:21.105Z,9.90
2023-01-28T21:29:03.249Z,10.55
2023-01-28T21:31:43.242Z,11.13
2023-01-28T21:34:21.413Z,11.10
2023-01-28T21:37:02.275Z,10.38
2023-01-28T21:39:42.918Z,11.13
2023-01-28T21:42:20.125Z,10.97
2023-01-28T21:45:01.781Z,12.67
2023-01-28T21:47:37.753Z,11.15
2023-01-28T21:50:18.712Z,10.85
2023-01-28T21:52:58.536Z,8.75
2023-01-28T21:55:36.450Z,9.07
2023-01-28T21:58:24.450Z,7.63
2023-01-28T22:01:07.594Z,8.00
2023-01-28T22:03:50.035Z,7.70
2023-01-28T22:06:29.087Z,8.95
2023-01-28T22:09:12.178Z,8.90
2023-01-28T22:11:48.394Z,8.25
2023-01-28T22:14:27.196Z,8.90
2023-01-28T22:17:08.513Z,7.90
2023-01-28T22:19:48.738Z,7.45
2023-01-28T22:22:28.623Z,7.85
2023-01-28T22:25:09.437Z,8.15
2023-01-28T22:27:46.009Z,8.40
2023-01-28T22:30:31.125Z,9.27
2023-01-28T22:33:14.726Z,8.57
2023-01-28T22:36:11.162Z,9.02
2023-01-28T22:38:59.867Z,8.23
2023-01-28T22:41:52.320Z,8.57
2023-01-28T22:44:31.335Z,8.20
2023-01-28T22:47:17.204Z,9.57
2023-01-28T22:50:06.912Z,7.72
2023-01-28T22:52:45.367Z,7.68
2023-01-28T22:55:25.770Z,8.13
2023-01-28T22:58:13.401Z,7.35
2023-01-28T23:00:53.288Z,6.43
2023-01-28T23:03:42.496Z,7.15
2023-01-28T23:06:23.738Z,6.20
2023-01-28T23:09:00.928Z,5.90
2023-01-28T23:11:40.529Z,4.82
2023-01-28T23:14:29.454Z,4.53
2023-01-28T23:17:30.474Z,4.95
2023-01-28T23:20:21.745Z,4.50
2023-01-28T23:23:17.101Z,6.40
2023-01-28T23:25:54.516Z,6.13
2023-01-28T23:28:34.947Z,7.78
2023-01-28T23:31:20.997Z,6.70
2023-01-28T23:33:57.715Z,7.10
2023-01-28T23:36:59.368Z,7.43
2023-01-28T23:39:56.051Z,6.80
2023-01-28T23:42:36.251Z,7.03
2023-01-28T23:45:19.324Z,5.82
2023-01-28T23:48:06.745Z,5.75
2023-01-28T23:50:49.374Z,5.57
2023-01-28T23:53:25.676Z,5.78
2023-01-28T23:56:07.021Z,5.80
2023-01-28T23:58:43.997Z,5.40
